createdAt,value
2022-10-31T00:00:19.070Z,13.17
2022-10-31T00:01:19.019Z,13.13
2022-10-31T00:02:19.149Z,13.11
2022-10-31T00:03:19.345Z,13.13
2022-10-31T00:04:18.990Z,13.11
2022-10-31T00:05:18.974Z,13.09
2022-10-31T00:06:18.981Z,13.06
2022-10-31T00:07:19.450Z,13.06
2022-10-31T00:08:19.025Z,13.06
2022-10-31T00:09:18.913Z,13.06
2022-10-31T00:10:18.902Z,13.09
2022-10-31T00:11:19.084Z,13.11
2022-10-31T00:12:18.886Z,13.11
2022-10-31T00:13:18.951Z,13.13
2022-10-31T00:14:19.085Z,13.14
2022-10-31T00:15:18.832Z,13.16
2022-10-31T00:16:18.825Z,13.21
2022-10-31T00:17:18.817Z,13.21
2022-10-31T00:18:18.804Z,13.23
2022-10-31T00:19:18.773Z,13.23
2022-10-31T00:20:18.764Z,13.21
2022-10-31T00:21:18.754Z,13.17
2022-10-31T00:22:19.014Z,13.17
2022-10-31T00:23:18.728Z,13.19
2022-10-31T00:24:19.675Z,13.14
2022-10-31T00:25:18.694Z,13.09
2022-10-31T00:26:18.691Z,13.09
2022-10-31T00:27:18.708Z,13.05
2022-10-31T00:29:18.648Z,13.04
2022-10-31T00:30:18.642Z,12.99
2022-10-31T00:31:18.616Z,12.99
2022-10-31T00:32:18.614Z,12.98
2022-10-31T00:33:18.599Z,12.91
2022-10-31T00:34:18.579Z,12.91
2022-10-31T00:35:18.608Z,12.90
2022-10-31T00:36:18.554Z,12.93
2022-10-31T00:37:18.550Z,12.96
2022-10-31T00:38:18.539Z,12.95
2022-10-31T00:39:18.529Z,12.91
2022-10-31T00:40:18.500Z,12.93
2022-10-31T00:41:18.488Z,12.91
2022-10-31T00:42:18.496Z,12.93
2022-10-31T00:43:18.463Z,12.93
2022-10-31T00:44:18.451Z,12.93
2022-10-31T00:45:18.432Z,12.93
2022-10-31T00:46:19.390Z,12.90
2022-10-31T00:47:18.441Z,12.95
2022-10-31T00:48:18.414Z,12.93
2022-10-31T00:49:18.383Z,12.90
2022-10-31T00:50:18.372Z,12.88
2022-10-31T00:51:18.362Z,12.86
2022-10-31T00:52:18.592Z,12.81
2022-10-31T00:53:18.325Z,12.80
2022-10-31T00:54:18.324Z,12.76
2022-10-31T00:55:18.313Z,12.68
2022-10-31T00:56:18.295Z,12.58
2022-10-31T00:57:18.295Z,12.59
2022-10-31T00:58:18.267Z,12.54
2022-10-31T00:59:18.253Z,12.50
2022-10-31T01:00:18.251Z,12.48
2022-10-31T01:01:18.335Z,12.43
2022-10-31T01:02:18.351Z,12.44
2022-10-31T01:03:18.197Z,12.40
2022-10-31T01:04:18.195Z,12.36
2022-10-31T01:05:18.177Z,12.32
2022-10-31T01:06:18.167Z,12.33
2022-10-31T01:07:18.142Z,12.33
2022-10-31T01:08:18.140Z,12.33
2022-10-31T01:09:18.127Z,12.32
2022-10-31T01:10:18.116Z,12.38
2022-10-31T01:11:18.099Z,12.35
2022-10-31T01:12:18.092Z,12.33
2022-10-31T01:13:18.756Z,12.33
2022-10-31T01:14:18.063Z,12.33
2022-10-31T01:15:18.172Z,12.33
2022-10-31T01:16:18.240Z,12.33
2022-10-31T01:17:18.012Z,12.32
2022-10-31T01:18:18.022Z,12.30
2022-10-31T01:19:17.995Z,12.32
2022-10-31T01:20:17.985Z,12.32
2022-10-31T01:21:17.972Z,12.29
2022-10-31T01:22:17.953Z,12.30
2022-10-31T01:23:17.932Z,12.30
2022-10-31T01:24:18.133Z,12.30
2022-10-31T01:25:17.921Z,12.33
2022-10-31T01:26:17.915Z,12.33
2022-10-31T01:27:17.894Z,12.32
2022-10-31T01:28:17.915Z,12.32
2022-10-31T01:29:17.863Z,12.33
2022-10-31T01:30:17.858Z,12.29
2022-10-31T01:31:17.854Z,12.30
2022-10-31T01:32:17.829Z,12.29
2022-10-31T01:33:17.813Z,12.29
2022-10-31T01:34:17.801Z,12.28
2022-10-31T01:35:17.786Z,12.28
2022-10-31T01:36:17.777Z,12.28
2022-10-31T01:37:17.756Z,12.32
2022-10-31T01:38:17.784Z,12.28
2022-10-31T01:39:17.826Z,12.22
2022-10-31T01:40:17.717Z,12.22
2022-10-31T01:41:17.906Z,12.21
2022-10-31T01:42:17.967Z,12.25
2022-10-31T01:43:17.707Z,12.25
2022-10-31T01:44:17.688Z,12.23
2022-10-31T01:45:17.647Z,12.28
2022-10-31T01:46:17.660Z,12.25
2022-10-31T01:47:17.622Z,12.23
2022-10-31T01:48:17.774Z,12.25
2022-10-31T01:49:17.589Z,12.26
2022-10-31T01:50:17.581Z,12.26
2022-10-31T01:51:17.570Z,12.32
2022-10-31T01:52:18.512Z,12.25
2022-10-31T01:53:19.872Z,12.23
2022-10-31T01:54:17.550Z,12.23
2022-10-31T01:55:17.532Z,12.22
2022-10-31T01:56:17.503Z,12.18
2022-10-31T01:57:17.511Z,12.08
2022-10-31T01:58:19.980Z,12.00
2022-10-31T01:59:17.463Z,12.00
2022-10-31T02:00:17.962Z,12.00
2022-10-31T02:01:17.600Z,12.00
2022-10-31T02:03:49.721Z,11.97
2022-10-31T02:04:26.896Z,11.91
2022-10-31T02:05:26.620Z,11.96
2022-10-31T02:06:26.599Z,11.91
2022-10-31T02:07:26.595Z,11.91
2022-10-31T02:08:26.582Z,11.80
2022-10-31T02:09:26.561Z,11.74
2022-10-31T02:10:27.212Z,11.73
2022-10-31T02:11:28.463Z,11.71
2022-10-31T02:12:26.521Z,11.71
2022-10-31T02:14:26.493Z,11.71
2022-10-31T02:15:26.485Z,11.70
2022-10-31T02:16:28.144Z,11.62
2022-10-31T02:17:26.462Z,11.59
2022-10-31T02:18:26.454Z,11.58
2022-10-31T02:19:26.438Z,11.55
2022-10-31T02:20:27.006Z,11.56
2022-10-31T02:21:26.413Z,11.52
2022-10-31T02:22:26.648Z,11.49
2022-10-31T02:23:26.373Z,11.51
2022-10-31T02:24:26.356Z,11.48
2022-10-31T02:25:26.355Z,11.46
2022-10-31T02:26:26.344Z,11.49
2022-10-31T02:27:26.323Z,11.45
2022-10-31T02:28:27.158Z,11.45
2022-10-31T02:29:26.886Z,11.43
2022-10-31T02:30:26.292Z,11.43
2022-10-31T02:31:26.266Z,11.41
2022-10-31T02:32:27.278Z,11.41
2022-10-31T02:33:26.256Z,11.38
2022-10-31T02:34:27.287Z,11.34
2022-10-31T02:35:30.906Z,11.38
2022-10-31T02:36:26.219Z,11.36
2022-10-31T02:37:26.189Z,11.33
2022-10-31T02:38:26.189Z,11.36
2022-10-31T02:39:26.369Z,11.33
2022-10-31T02:40:26.919Z,11.34
2022-10-31T02:41:26.141Z,11.31
2022-10-31T02:42:26.950Z,11.36
2022-10-31T02:43:26.112Z,11.33
2022-10-31T02:44:26.467Z,11.30
2022-10-31T02:45:27.010Z,11.33
2022-10-31T02:46:29.613Z,11.33
2022-10-31T02:47:26.284Z,11.33
2022-10-31T02:48:26.057Z,11.34
2022-10-31T02:49:26.030Z,11.31
2022-10-31T02:50:26.033Z,11.28
2022-10-31T02:51:26.011Z,11.36
2022-10-31T02:52:26.004Z,11.30
2022-10-31T02:53:25.980Z,11.31
2022-10-31T02:54:25.970Z,11.27
2022-10-31T02:55:25.962Z,11.27
2022-10-31T02:56:25.944Z,11.25
2022-10-31T02:57:26.728Z,11.23
2022-10-31T02:58:27.018Z,11.22
2022-10-31T02:59:25.913Z,11.23
2022-10-31T03:00:26.086Z,11.25
2022-10-31T03:01:26.754Z,11.23
2022-10-31T03:02:27.829Z,11.23
2022-10-31T03:03:26.964Z,11.20
2022-10-31T03:04:26.243Z,11.23
2022-10-31T03:05:25.835Z,11.27
2022-10-31T03:06:25.825Z,11.31
2022-10-31T03:07:25.805Z,11.33
2022-10-31T03:08:25.796Z,11.36
2022-10-31T03:09:25.776Z,11.41
2022-10-31T03:10:25.773Z,11.43
2022-10-31T03:11:25.757Z,11.43
2022-10-31T03:12:25.738Z,11.48
2022-10-31T03:13:25.729Z,11.55
2022-10-31T03:14:26.017Z,11.56
2022-10-31T03:15:25.698Z,11.58
2022-10-31T03:16:25.688Z,11.59
2022-10-31T03:17:25.711Z,11.61
2022-10-31T03:18:25.658Z,11.62
2022-10-31T03:19:25.638Z,11.64
2022-10-31T03:20:25.640Z,11.62
2022-10-31T03:21:26.609Z,11.66
2022-10-31T03:22:25.600Z,11.64
2022-10-31T03:23:25.604Z,11.62
2022-10-31T03:24:25.641Z,11.61
2022-10-31T03:25:25.812Z,11.59
2022-10-31T03:26:25.557Z,11.61
2022-10-31T03:27:26.282Z,11.55
2022-10-31T03:28:26.343Z,11.56
2022-10-31T03:29:25.901Z,11.54
2022-10-31T03:30:25.502Z,11.49
2022-10-31T03:31:25.482Z,11.49
2022-10-31T03:32:25.522Z,11.46
2022-10-31T03:33:25.469Z,11.46
2022-10-31T03:34:25.453Z,11.45
2022-10-31T03:35:25.705Z,11.41
2022-10-31T03:36:25.423Z,11.41
2022-10-31T03:37:26.283Z,11.40
2022-10-31T03:38:25.383Z,11.38
2022-10-31T03:39:25.854Z,11.41
2022-10-31T03:40:25.362Z,11.45
2022-10-31T03:41:25.354Z,11.40
2022-10-31T03:42:25.345Z,11.41
2022-10-31T03:43:25.532Z,11.38
2022-10-31T03:44:25.545Z,11.45
2022-10-31T03:45:25.324Z,11.43
2022-10-31T03:46:25.288Z,11.41
2022-10-31T03:47:25.288Z,11.43
2022-10-31T03:48:25.266Z,11.41
2022-10-31T03:49:25.269Z,11.43
2022-10-31T03:50:25.299Z,11.41
2022-10-31T03:51:25.858Z,11.40
2022-10-31T03:52:26.918Z,11.43
2022-10-31T03:53:25.219Z,11.43
2022-10-31T03:54:25.189Z,11.46
2022-10-31T03:55:25.172Z,11.43
2022-10-31T03:56:26.100Z,11.41
2022-10-31T03:57:25.170Z,11.46
2022-10-31T03:58:25.149Z,11.45
2022-10-31T03:59:25.131Z,11.46
2022-10-31T04:00:25.107Z,11.45
2022-10-31T04:01:25.298Z,11.46
2022-10-31T04:02:26.125Z,11.45
2022-10-31T04:03:25.266Z,11.46
2022-10-31T04:04:25.316Z,11.48
2022-10-31T04:05:25.397Z,11.48
2022-10-31T04:06:25.422Z,11.48
2022-10-31T04:07:25.034Z,11.48
2022-10-31T04:08:25.042Z,11.46
2022-10-31T04:09:24.992Z,11.51
2022-10-31T04:10:31.859Z,11.51
2022-10-31T04:11:26.203Z,11.49
2022-10-31T04:12:24.953Z,11.49
2022-10-31T04:13:25.842Z,11.49
2022-10-31T04:14:24.914Z,11.48
2022-10-31T04:15:25.869Z,11.46
2022-10-31T04:16:24.914Z,11.43
2022-10-31T04:17:24.884Z,11.48
2022-10-31T04:18:24.871Z,11.46
2022-10-31T04:19:24.861Z,11.46
2022-10-31T04:20:24.836Z,11.46
2022-10-31T04:21:25.174Z,11.45
2022-10-31T04:22:24.815Z,11.43
2022-10-31T04:23:24.818Z,11.43
2022-10-31T04:24:24.786Z,11.45
2022-10-31T04:25:24.794Z,11.46
2022-10-31T04:26:25.378Z,11.43
2022-10-31T04:27:25.425Z,11.41
2022-10-31T04:28:24.758Z,11.43
2022-10-31T04:29:24.727Z,11.41
2022-10-31T04:30:25.567Z,11.43
2022-10-31T04:31:24.703Z,11.41
2022-10-31T04:32:25.138Z,11.43
2022-10-31T04:33:26.218Z,11.43
2022-10-31T04:34:24.717Z,11.41
2022-10-31T04:35:24.659Z,11.38
2022-10-31T04:36:24.630Z,11.41
2022-10-31T04:37:25.364Z,11.43
2022-10-31T04:38:25.409Z,11.43
2022-10-31T04:39:26.671Z,11.40
2022-10-31T04:40:25.523Z,11.41
2022-10-31T04:41:25.061Z,11.38
2022-10-31T04:42:24.570Z,11.37
2022-10-31T04:43:24.656Z,11.36
2022-10-31T04:44:24.693Z,11.33
2022-10-31T04:45:24.518Z,11.36
2022-10-31T04:46:24.792Z,11.31
2022-10-31T04:47:24.742Z,11.30
2022-10-31T04:48:24.472Z,11.30
2022-10-31T04:49:24.968Z,11.28
2022-10-31T04:50:24.444Z,11.25
2022-10-31T04:51:24.450Z,11.22
2022-10-31T04:52:24.423Z,11.23
2022-10-31T04:53:24.403Z,11.20
2022-10-31T04:54:24.401Z,11.20
2022-10-31T04:55:24.384Z,11.22
2022-10-31T04:56:24.370Z,11.18
2022-10-31T04:57:24.354Z,11.20
2022-10-31T04:58:24.349Z,11.19
2022-10-31T04:59:24.358Z,11.15
2022-10-31T05:00:24.322Z,11.13
2022-10-31T05:01:24.409Z,11.16
2022-10-31T05:02:24.347Z,11.12
2022-10-31T05:03:24.276Z,11.09
2022-10-31T05:04:24.266Z,11.08
2022-10-31T05:05:24.247Z,11.05
2022-10-31T05:06:24.236Z,11.08
2022-10-31T05:07:24.243Z,11.04
2022-10-31T05:08:24.217Z,10.98
2022-10-31T05:09:24.208Z,10.97
2022-10-31T05:10:24.183Z,10.95
2022-10-31T05:11:24.168Z,10.94
2022-10-31T05:12:24.170Z,10.91
2022-10-31T05:13:24.144Z,10.93
2022-10-31T05:14:24.124Z,10.91
2022-10-31T05:15:24.379Z,10.86
2022-10-31T05:16:24.099Z,10.86
2022-10-31T05:17:24.106Z,10.82
2022-10-31T05:18:24.081Z,10.82
2022-10-31T05:19:24.063Z,10.78
2022-10-31T05:20:24.050Z,10.75
2022-10-31T05:21:24.999Z,10.68
2022-10-31T05:22:24.042Z,10.68
2022-10-31T05:23:24.012Z,10.67
2022-10-31T05:24:24.002Z,10.64
2022-10-31T05:25:23.992Z,10.68
2022-10-31T05:26:23.972Z,10.67
2022-10-31T05:27:24.922Z,10.67
2022-10-31T05:28:23.950Z,10.65
2022-10-31T05:29:23.943Z,10.64
2022-10-31T05:30:23.934Z,10.65
2022-10-31T05:31:23.920Z,10.65
2022-10-31T05:32:23.893Z,10.67
2022-10-31T05:33:23.878Z,10.67
2022-10-31T05:34:23.880Z,10.68
2022-10-31T05:35:23.864Z,10.62
2022-10-31T05:36:23.835Z,10.61
2022-10-31T05:37:23.835Z,10.60
2022-10-31T05:38:24.087Z,10.60
2022-10-31T05:39:23.801Z,10.58
2022-10-31T05:40:23.788Z,10.55
2022-10-31T05:41:23.778Z,10.58
2022-10-31T05:42:23.778Z,10.54
2022-10-31T05:43:24.704Z,10.55
2022-10-31T05:44:24.696Z,10.54
2022-10-31T05:45:23.730Z,10.52
2022-10-31T05:46:23.762Z,10.55
2022-10-31T05:47:23.708Z,10.48
2022-10-31T05:48:23.687Z,10.45
2022-10-31T05:49:23.684Z,10.43
2022-10-31T05:50:23.649Z,10.41
2022-10-31T05:51:23.667Z,10.38
2022-10-31T05:52:23.630Z,10.38
2022-10-31T05:53:24.577Z,10.36
2022-10-31T05:54:24.558Z,10.35
2022-10-31T05:55:23.590Z,10.39
2022-10-31T05:56:23.582Z,10.39
2022-10-31T05:57:23.560Z,10.42
2022-10-31T05:58:24.519Z,10.42
2022-10-31T05:59:24.488Z,10.39
2022-10-31T06:00:23.527Z,10.45
2022-10-31T06:01:23.590Z,10.42
2022-10-31T06:02:23.499Z,10.41
2022-10-31T06:03:23.496Z,10.42
2022-10-31T06:04:23.526Z,10.43
2022-10-31T06:05:23.461Z,10.41
2022-10-31T06:06:23.453Z,10.45
2022-10-31T06:07:23.441Z,10.45
2022-10-31T06:08:24.364Z,10.43
2022-10-31T06:09:23.438Z,10.43
2022-10-31T06:10:23.393Z,10.43
2022-10-31T06:11:23.383Z,10.41
2022-10-31T06:12:23.363Z,10.43
2022-10-31T06:13:23.354Z,10.43
2022-10-31T06:14:24.285Z,10.41
2022-10-31T06:15:24.349Z,10.42
2022-10-31T06:16:23.326Z,10.38
2022-10-31T06:17:23.295Z,10.39
2022-10-31T06:18:23.305Z,10.39
2022-10-31T06:19:23.296Z,10.39
2022-10-31T06:20:23.295Z,10.39
2022-10-31T06:21:23.282Z,10.38
2022-10-31T06:22:23.256Z,10.39
2022-10-31T06:23:24.176Z,10.41
2022-10-31T06:24:23.208Z,10.42
2022-10-31T06:25:23.207Z,10.46
2022-10-31T06:26:23.187Z,10.46
2022-10-31T06:27:23.177Z,10.48
2022-10-31T06:28:24.108Z,10.49
2022-10-31T06:29:23.150Z,10.49
2022-10-31T06:30:23.154Z,10.55
2022-10-31T06:31:23.119Z,10.57
2022-10-31T06:32:23.100Z,10.60
2022-10-31T06:33:23.089Z,10.62
2022-10-31T06:34:24.019Z,10.65
2022-10-31T06:35:23.069Z,10.65
2022-10-31T06:36:23.101Z,10.70
2022-10-31T06:37:23.039Z,10.75
2022-10-31T06:38:23.023Z,10.78
2022-10-31T06:39:23.011Z,10.79
2022-10-31T06:40:23.007Z,10.80
2022-10-31T06:41:23.119Z,10.85
2022-10-31T06:42:22.971Z,10.79
2022-10-31T06:43:22.977Z,10.85
2022-10-31T06:44:22.942Z,10.90
2022-10-31T06:45:22.951Z,10.87
2022-10-31T06:46:22.912Z,10.90
2022-10-31T06:47:22.908Z,10.87
2022-10-31T06:48:23.077Z,10.94
2022-10-31T06:49:22.894Z,10.95
2022-10-31T06:50:22.890Z,10.94
2022-10-31T06:51:22.854Z,11.00
2022-10-31T06:52:22.847Z,11.04
2022-10-31T06:53:22.826Z,11.04
2022-10-31T06:54:22.816Z,11.05
2022-10-31T06:55:22.804Z,11.11
2022-10-31T06:56:22.795Z,11.12
2022-10-31T06:57:22.785Z,11.12
2022-10-31T06:58:22.755Z,11.18
2022-10-31T06:59:22.757Z,11.20
2022-10-31T07:00:22.747Z,11.20
2022-10-31T07:01:22.876Z,11.22
2022-10-31T07:02:22.782Z,11.22
2022-10-31T07:03:22.694Z,11.25
2022-10-31T07:04:22.678Z,11.25
2022-10-31T07:05:22.676Z,11.27
2022-10-31T07:06:22.661Z,11.28
2022-10-31T07:07:22.647Z,11.30
2022-10-31T07:08:22.629Z,11.33
2022-10-31T07:09:22.623Z,11.31
2022-10-31T07:10:22.609Z,11.34
2022-10-31T07:11:22.589Z,11.36
2022-10-31T07:12:22.590Z,11.38
2022-10-31T07:13:22.569Z,11.37
2022-10-31T07:14:22.549Z,11.40
2022-10-31T07:15:22.550Z,11.43
2022-10-31T07:16:22.522Z,11.46
2022-10-31T07:17:26.040Z,11.48
2022-10-31T07:18:23.490Z,11.49
2022-10-31T07:19:22.490Z,11.51
2022-10-31T07:20:22.473Z,11.54
2022-10-31T07:21:22.461Z,11.62
2022-10-31T07:22:22.444Z,11.66
2022-10-31T07:23:22.430Z,11.67
2022-10-31T07:24:22.434Z,11.73
2022-10-31T07:25:22.402Z,11.79
2022-10-31T07:26:22.392Z,11.79
2022-10-31T07:27:22.373Z,11.84
2022-10-31T07:28:22.373Z,11.87
2022-10-31T07:29:22.354Z,11.89
2022-10-31T07:30:22.343Z,11.93
2022-10-31T07:31:22.355Z,11.96
2022-10-31T07:32:22.315Z,11.95
2022-10-31T07:33:22.303Z,11.95
2022-10-31T07:34:22.285Z,11.99
2022-10-31T07:35:22.285Z,12.00
2022-10-31T07:36:22.268Z,12.07
2022-10-31T07:37:22.245Z,12.08
2022-10-31T07:38:22.252Z,12.08
2022-10-31T07:39:22.216Z,12.13
2022-10-31T07:40:22.214Z,12.17
2022-10-31T07:41:22.196Z,12.21
2022-10-31T07:42:22.191Z,12.23
2022-10-31T07:43:22.186Z,12.30
2022-10-31T07:44:22.225Z,12.30
2022-10-31T07:45:22.148Z,12.32
2022-10-31T07:46:22.139Z,12.36
2022-10-31T07:47:22.120Z,12.38
2022-10-31T07:48:22.120Z,12.43
2022-10-31T07:49:22.128Z,12.46
2022-10-31T07:50:22.099Z,12.50
2022-10-31T07:51:22.069Z,12.50
2022-10-31T07:52:22.059Z,12.51
2022-10-31T07:53:22.040Z,12.55
2022-10-31T07:54:22.059Z,12.59
2022-10-31T07:55:22.033Z,12.62
2022-10-31T07:56:22.017Z,12.68
2022-10-31T07:57:25.145Z,12.66
2022-10-31T07:58:22.012Z,12.77
2022-10-31T07:59:21.959Z,12.81
2022-10-31T08:00:21.958Z,12.86
2022-10-31T08:01:21.932Z,12.86
2022-10-31T08:02:21.922Z,12.87
2022-10-31T08:03:21.924Z,12.88
2022-10-31T08:04:21.903Z,12.98
2022-10-31T08:05:21.883Z,13.02
2022-10-31T08:06:21.872Z,13.05
2022-10-31T08:07:21.928Z,13.06
2022-10-31T08:08:21.923Z,13.16
2022-10-31T08:09:21.824Z,13.17
2022-10-31T08:10:21.825Z,13.24
2022-10-31T08:11:21.796Z,13.35
2022-10-31T08:12:22.748Z,13.38
2022-10-31T08:13:21.785Z,13.45
2022-10-31T08:14:21.775Z,13.47
2022-10-31T08:15:21.747Z,13.49
2022-10-31T08:16:21.748Z,13.55
2022-10-31T08:17:21.726Z,13.63
2022-10-31T08:18:21.727Z,13.61
2022-10-31T08:19:21.937Z,13.68
2022-10-31T08:20:21.689Z,13.73
2022-10-31T08:21:21.668Z,13.79
2022-10-31T08:22:21.657Z,13.79
2022-10-31T08:23:22.598Z,13.83
2022-10-31T08:24:21.641Z,13.94
2022-10-31T08:25:21.609Z,13.91
2022-10-31T08:26:21.609Z,13.97
2022-10-31T08:27:21.591Z,14.00
2022-10-31T08:28:21.592Z,14.05
2022-10-31T08:29:21.570Z,14.15
2022-10-31T08:30:21.560Z,14.18
2022-10-31T08:31:21.564Z,14.23
2022-10-31T08:32:21.528Z,14.28
2022-10-31T08:33:21.522Z,14.33
2022-10-31T08:34:21.526Z,14.36
2022-10-31T08:35:21.498Z,14.44
2022-10-31T08:36:21.512Z,14.45
2022-10-31T08:37:21.460Z,14.48
2022-10-31T08:38:21.463Z,14.52
2022-10-31T08:39:21.432Z,14.56
2022-10-31T08:40:21.450Z,14.59
2022-10-31T08:41:21.413Z,14.66
2022-10-31T08:42:21.403Z,14.69
2022-10-31T08:43:21.396Z,14.71
2022-10-31T08:44:21.410Z,14.78
2022-10-31T08:45:21.354Z,14.74
2022-10-31T08:46:21.340Z,14.78
2022-10-31T08:47:21.325Z,14.86
2022-10-31T08:48:21.325Z,14.92
2022-10-31T08:49:21.300Z,14.96
2022-10-31T08:50:21.295Z,14.96
2022-10-31T08:51:21.286Z,14.92
2022-10-31T08:52:23.457Z,14.95
2022-10-31T08:53:22.257Z,15.04
2022-10-31T08:54:21.247Z,15.11
2022-10-31T08:55:21.219Z,15.14
2022-10-31T08:56:21.222Z,15.15
2022-10-31T08:57:21.215Z,15.17
2022-10-31T08:58:21.198Z,15.23
2022-10-31T08:59:21.181Z,15.35
2022-10-31T09:00:21.168Z,15.43
2022-10-31T09:01:21.228Z,15.47
2022-10-31T09:02:21.235Z,15.47
2022-10-31T09:03:21.130Z,15.50
2022-10-31T09:04:21.120Z,15.54
2022-10-31T09:05:21.090Z,15.60
2022-10-31T09:06:21.126Z,15.62
2022-10-31T09:07:21.625Z,15.69
2022-10-31T09:08:21.068Z,15.77
2022-10-31T09:09:21.040Z,15.78
2022-10-31T09:10:21.035Z,15.80
2022-10-31T09:11:21.015Z,15.77
2022-10-31T09:12:21.010Z,15.77
2022-10-31T09:13:21.003Z,15.85
2022-10-31T09:14:20.984Z,15.85
2022-10-31T09:15:21.928Z,15.87
2022-10-31T09:16:20.953Z,15.93
2022-10-31T09:17:20.944Z,15.98
2022-10-31T09:18:20.924Z,16.03
2022-10-31T09:19:20.922Z,16.14
2022-10-31T09:20:20.897Z,16.03
2022-10-31T09:21:20.888Z,16.16
2022-10-31T09:22:20.882Z,16.06
2022-10-31T09:23:20.919Z,16.08
2022-10-31T09:24:20.876Z,16.08
2022-10-31T09:25:20.838Z,16.18
2022-10-31T09:26:20.826Z,16.22
2022-10-31T09:27:20.840Z,16.25
2022-10-31T09:28:20.801Z,16.28
2022-10-31T09:29:20.785Z,16.25
2022-10-31T09:30:20.776Z,16.28
2022-10-31T09:31:20.760Z,16.26
2022-10-31T09:32:20.759Z,16.25
2022-10-31T09:33:20.743Z,16.28
2022-10-31T09:34:20.724Z,16.33
2022-10-31T09:35:24.695Z,16.37
2022-10-31T09:36:21.690Z,16.42
2022-10-31T09:37:20.700Z,16.46
2022-10-31T09:38:20.661Z,16.47
2022-10-31T09:39:20.651Z,16.54
2022-10-31T09:40:20.644Z,16.58
2022-10-31T09:41:20.631Z,16.64
2022-10-31T09:42:20.672Z,16.69
2022-10-31T09:43:20.613Z,16.76
2022-10-31T09:44:20.595Z,16.73
2022-10-31T09:45:20.582Z,16.74
2022-10-31T09:46:20.574Z,16.74
2022-10-31T09:47:21.357Z,16.72
2022-10-31T09:48:20.573Z,16.77
2022-10-31T09:49:20.614Z,16.80
2022-10-31T09:50:20.512Z,16.91
2022-10-31T09:51:20.505Z,16.92
2022-10-31T09:52:20.494Z,16.95
2022-10-31T09:53:20.465Z,17.02
2022-10-31T09:54:20.457Z,17.02
2022-10-31T09:55:20.435Z,17.10
2022-10-31T09:56:20.464Z,17.14
2022-10-31T09:57:20.439Z,17.12
2022-10-31T09:58:20.408Z,17.13
2022-10-31T09:59:20.395Z,17.13
2022-10-31T10:00:20.393Z,17.20
2022-10-31T10:01:20.535Z,17.22
2022-10-31T10:02:20.420Z,17.24
2022-10-31T10:03:20.340Z,17.25
2022-10-31T10:04:21.029Z,17.25
2022-10-31T10:05:20.317Z,17.17
2022-10-31T10:06:20.309Z,17.22
2022-10-31T10:07:20.289Z,17.25
2022-10-31T10:08:20.281Z,17.27
2022-10-31T10:10:20.383Z,17.31
2022-10-31T10:11:20.252Z,17.25
2022-10-31T10:12:20.237Z,17.28
2022-10-31T10:13:20.208Z,17.34
2022-10-31T10:14:20.202Z,17.34
2022-10-31T10:15:20.181Z,17.43
2022-10-31T10:16:20.185Z,17.43
2022-10-31T10:17:20.153Z,17.43
2022-10-31T10:18:20.142Z,17.38
2022-10-31T10:19:20.133Z,17.41
2022-10-31T10:20:20.738Z,17.45
2022-10-31T10:21:20.123Z,17.46
2022-10-31T10:22:20.091Z,17.45
2022-10-31T10:23:20.079Z,17.45
2022-10-31T10:24:20.065Z,17.43
2022-10-31T10:25:20.045Z,17.45
2022-10-31T10:26:20.174Z,17.52
2022-10-31T10:27:22.396Z,17.53
2022-10-31T10:28:20.029Z,17.56
2022-10-31T10:29:19.999Z,17.57
2022-10-31T10:30:20.040Z,17.66
2022-10-31T10:31:20.001Z,17.71
2022-10-31T10:32:19.963Z,17.75
2022-10-31T10:33:19.943Z,17.78
2022-10-31T10:34:19.937Z,17.84
2022-10-31T10:35:19.919Z,17.86
2022-10-31T10:36:19.919Z,17.99
2022-10-31T10:37:19.886Z,18.08
2022-10-31T10:38:19.889Z,18.12
2022-10-31T10:39:19.867Z,18.12
2022-10-31T10:40:20.022Z,18.13
2022-10-31T10:41:19.864Z,18.08
2022-10-31T10:42:19.841Z,18.12
2022-10-31T10:43:19.825Z,18.17
2022-10-31T10:44:19.802Z,18.17
2022-10-31T10:45:19.792Z,18.26
2022-10-31T10:46:19.791Z,18.31
2022-10-31T10:47:19.779Z,18.36
2022-10-31T10:48:19.763Z,18.34
2022-10-31T10:49:19.743Z,18.24
2022-10-31T10:50:19.795Z,18.24
2022-10-31T10:51:31.998Z,18.36
2022-10-31T10:52:39.809Z,18.38
2022-10-31T10:53:20.699Z,18.38
2022-10-31T10:54:19.675Z,18.48
2022-10-31T10:55:19.665Z,18.46
2022-10-31T10:56:19.646Z,18.54
2022-10-31T10:57:19.627Z,18.60
2022-10-31T10:58:19.616Z,18.54
2022-10-31T10:59:19.596Z,18.56
2022-10-31T11:00:19.695Z,18.58
2022-10-31T11:01:19.580Z,18.64
2022-10-31T11:02:19.559Z,18.75
2022-10-31T11:03:19.546Z,18.79
2022-10-31T11:04:19.538Z,18.81
2022-10-31T11:05:19.529Z,18.79
2022-10-31T11:06:19.509Z,18.88
2022-10-31T11:07:19.494Z,18.91
2022-10-31T11:08:22.405Z,18.96
2022-10-31T11:09:20.501Z,18.93
2022-10-31T11:10:19.540Z,18.89
2022-10-31T11:11:19.440Z,18.88
2022-10-31T11:12:19.462Z,18.83
2022-10-31T11:13:19.421Z,18.86
2022-10-31T11:14:19.403Z,18.85
2022-10-31T11:15:19.422Z,18.81
2022-10-31T11:16:19.384Z,18.83
2022-10-31T11:17:19.364Z,18.88
2022-10-31T11:18:19.400Z,18.79
2022-10-31T11:19:19.363Z,18.70
2022-10-31T11:20:19.417Z,18.74
2022-10-31T11:21:19.305Z,18.82
2022-10-31T11:22:19.328Z,18.89
2022-10-31T11:23:19.327Z,18.96
2022-10-31T11:24:19.275Z,19.01
2022-10-31T11:25:19.268Z,19.01
2022-10-31T11:26:19.256Z,19.01
2022-10-31T11:27:20.196Z,19.00
2022-10-31T11:28:19.229Z,19.05
2022-10-31T11:29:19.208Z,18.89
2022-10-31T11:30:19.206Z,18.83
2022-10-31T11:31:19.178Z,18.83
2022-10-31T11:32:19.157Z,18.83
2022-10-31T11:33:20.101Z,18.83
2022-10-31T11:34:19.138Z,18.81
2022-10-31T11:35:19.139Z,18.76
2022-10-31T11:36:19.123Z,18.68
2022-10-31T11:37:19.100Z,18.68
2022-10-31T11:38:19.081Z,18.67
2022-10-31T11:39:19.081Z,18.78
2022-10-31T11:40:19.061Z,18.83
2022-10-31T11:41:19.067Z,18.88
2022-10-31T11:42:19.024Z,18.94
2022-10-31T11:43:19.019Z,19.00
2022-10-31T11:44:19.000Z,19.05
2022-10-31T11:45:19.004Z,19.12
2022-10-31T11:46:18.974Z,19.24
2022-10-31T11:47:18.973Z,19.23
2022-10-31T11:48:18.954Z,19.19
2022-10-31T11:49:18.944Z,19.04
2022-10-31T11:50:18.926Z,18.97
2022-10-31T11:51:19.879Z,18.94
2022-10-31T11:52:18.906Z,18.94
2022-10-31T11:53:18.897Z,18.86
2022-10-31T11:54:18.876Z,18.89
2022-10-31T11:55:18.877Z,18.89
2022-10-31T11:56:18.847Z,18.86
2022-10-31T11:57:18.835Z,18.89
2022-10-31T11:58:18.817Z,18.85
2022-10-31T11:59:18.817Z,18.89
2022-10-31T12:00:18.869Z,18.94
2022-10-31T12:01:18.838Z,18.97
2022-10-31T12:02:18.972Z,18.96
2022-10-31T12:03:18.807Z,18.94
2022-10-31T12:04:18.740Z,19.04
2022-10-31T12:05:18.740Z,19.13
2022-10-31T12:06:18.720Z,19.16
2022-10-31T12:07:18.749Z,19.09
2022-10-31T12:08:18.731Z,19.08
2022-10-31T12:09:18.673Z,19.07
2022-10-31T12:10:18.672Z,19.07
2022-10-31T12:11:18.652Z,19.07
2022-10-31T12:12:18.651Z,19.04
2022-10-31T12:13:18.622Z,19.00
2022-10-31T12:14:18.605Z,18.96
2022-10-31T12:15:18.615Z,18.98
2022-10-31T12:16:18.584Z,18.98
2022-10-31T12:17:18.574Z,19.01
2022-10-31T12:18:18.573Z,19.01
2022-10-31T12:19:18.544Z,19.04
2022-10-31T12:20:18.537Z,18.91
2022-10-31T12:21:18.523Z,18.88
2022-10-31T12:22:18.516Z,18.93
2022-10-31T12:23:18.496Z,18.93
2022-10-31T12:24:18.486Z,18.97
2022-10-31T12:25:18.479Z,19.00
2022-10-31T12:26:18.454Z,19.05
2022-10-31T12:27:18.476Z,19.08
2022-10-31T12:28:18.428Z,19.09
2022-10-31T12:29:18.430Z,19.13
2022-10-31T12:30:18.419Z,19.20
2022-10-31T12:31:18.399Z,19.26
2022-10-31T12:32:18.379Z,19.24
2022-10-31T12:33:18.373Z,19.24
2022-10-31T12:34:18.352Z,19.34
2022-10-31T12:35:18.352Z,19.31
2022-10-31T12:36:18.322Z,19.19
2022-10-31T12:37:18.311Z,19.20
2022-10-31T12:38:18.309Z,19.22
2022-10-31T12:39:18.283Z,19.30
2022-10-31T12:40:18.282Z,19.35
2022-10-31T12:41:18.278Z,19.38
2022-10-31T12:42:18.261Z,19.42
2022-10-31T12:43:18.233Z,19.38
2022-10-31T12:44:18.227Z,19.44
2022-10-31T12:45:18.216Z,19.45
2022-10-31T12:46:18.195Z,19.53
2022-10-31T12:47:18.185Z,19.54
2022-10-31T12:48:18.166Z,19.49
2022-10-31T12:49:18.156Z,19.53
2022-10-31T12:50:18.150Z,19.56
2022-10-31T12:51:18.136Z,19.54
2022-10-31T12:52:18.116Z,19.54
2022-10-31T12:54:18.088Z,19.41
2022-10-31T12:55:18.087Z,19.35
2022-10-31T12:56:18.070Z,19.32
2022-10-31T12:57:18.070Z,19.22